createdAt,value
2022-08-20T00:02:15.702Z,8.20
2022-08-20T00:04:44.792Z,8.00
2022-08-20T00:07:14.960Z,8.00
2022-08-20T00:09:43.907Z,7.80
2022-08-20T00:12:16.206Z,8.10
2022-08-20T00:14:44.913Z,7.80
2022-08-20T00:17:13.550Z,7.80
2022-08-20T00:19:42.004Z,7.80
2022-08-20T00:22:10.602Z,7.90
2022-08-20T00:24:39.011Z,7.70
2022-08-20T00:27:07.411Z,7.80
2022-08-20T00:29:35.739Z,8.00
2022-08-20T00:32:04.400Z,7.70
2022-08-20T00:34:32.958Z,8.40
2022-08-20T00:37:01.335Z,7.80
2022-08-20T00:39:29.655Z,7.70
2022-08-20T00:41:57.947Z,7.70
2022-08-20T00:44:26.524Z,8.00
2022-08-20T00:46:55.033Z,8.30
2022-08-20T00:49:28.133Z,9.10
2022-08-20T00:52:06.025Z,8.60
2022-08-20T00:54:41.948Z,8.10
2022-08-20T00:57:18.459Z,7.90
2022-08-20T00:59:49.253Z,7.80
2022-08-20T01:02:21.722Z,8.50
2022-08-20T01:04:52.802Z,8.10
2022-08-20T01:07:28.862Z,7.70
2022-08-20T01:09:58.282Z,8.40
2022-08-20T01:12:29.903Z,8.20
2022-08-20T01:15:01.939Z,8.30
2022-08-20T01:17:35.183Z,8.10
2022-08-20T01:20:15.849Z,8.40
2022-08-20T01:23:20.126Z,8.40
2022-08-20T01:25:48.433Z,8.30
2022-08-20T01:28:21.297Z,8.40
2022-08-20T01:30:49.661Z,8.60
2022-08-20T01:33:20.402Z,8.80
2022-08-20T01:35:50.461Z,8.60
2022-08-20T01:38:19.743Z,8.80
2022-08-20T01:41:19.173Z,8.50
2022-08-20T01:43:58.363Z,8.90
2022-08-20T01:46:33.363Z,9.40
2022-08-20T01:49:31.241Z,9.20
2022-08-20T01:52:05.700Z,9.70
2022-08-20T01:54:34.645Z,9.70
2022-08-20T01:57:10.571Z,9.60
2022-08-20T01:59:39.743Z,10.00
2022-08-20T02:02:08.921Z,10.00
2022-08-20T02:04:37.790Z,9.80
2022-08-20T02:07:08.568Z,10.20
2022-08-20T02:09:39.687Z,9.90
2022-08-20T02:12:09.902Z,9.70
2022-08-20T02:14:44.113Z,9.60
2022-08-20T02:17:13.889Z,9.60
2022-08-20T02:19:49.727Z,10.20
2022-08-20T02:22:26.502Z,10.40
2022-08-20T02:24:55.899Z,9.90
2022-08-20T02:27:24.649Z,10.00
2022-08-20T02:29:53.491Z,9.10
2022-08-20T02:32:25.155Z,9.80
2022-08-20T02:35:06.164Z,9.40
2022-08-20T02:37:35.982Z,9.90
2022-08-20T02:40:08.378Z,10.90
2022-08-20T02:42:38.149Z,9.30
2022-08-20T02:45:07.015Z,10.70
2022-08-20T02:47:35.330Z,9.80
2022-08-20T02:50:07.785Z,10.40
2022-08-20T02:52:36.511Z,9.50
2022-08-20T02:55:05.326Z,9.70
2022-08-20T02:57:33.766Z,10.40
2022-08-20T03:00:02.959Z,10.10
2022-08-20T03:02:32.268Z,10.50
2022-08-20T03:05:00.597Z,9.00
2022-08-20T03:07:29.433Z,10.20
2022-08-20T03:09:57.773Z,10.00
2022-08-20T03:12:26.115Z,10.80
2022-08-20T03:14:54.537Z,9.90
2022-08-20T03:17:23.380Z,10.30
2022-08-20T03:19:51.685Z,10.00
2022-08-20T03:22:19.952Z,11.10
2022-08-20T03:24:48.298Z,10.20
2022-08-20T03:27:16.621Z,10.00
2022-08-20T03:29:49.004Z,9.80
2022-08-20T03:32:17.712Z,10.60
2022-08-20T03:34:46.036Z,10.40
2022-08-20T03:37:14.685Z,10.00
2022-08-20T03:39:43.073Z,9.90
2022-08-20T03:42:11.429Z,10.00
2022-08-20T03:44:39.715Z,10.70
2022-08-20T03:47:09.645Z,9.90
2022-08-20T03:49:37.928Z,10.10
2022-08-20T03:52:06.386Z,10.20
2022-08-20T03:54:34.738Z,10.20
2022-08-20T03:57:03.814Z,10.40
2022-08-20T03:59:43.178Z,10.20
2022-08-20T04:02:12.827Z,9.70
2022-08-20T04:04:41.751Z,10.40
2022-08-20T04:07:15.807Z,10.20
2022-08-20T04:09:44.150Z,9.60
2022-08-20T04:12:15.210Z,10.20
2022-08-20T04:14:43.517Z,10.00
2022-08-20T04:17:14.370Z,10.60
2022-08-20T04:22:14.011Z,9.10
2022-08-20T04:24:44.439Z,10.40
2022-08-20T04:27:14.974Z,9.40
2022-08-20T04:32:14.251Z,9.90
2022-08-20T04:34:47.313Z,9.40
2022-08-20T04:37:21.285Z,10.20
2022-08-20T04:40:10.943Z,9.10
2022-08-20T04:42:39.384Z,9.70
2022-08-20T04:45:09.155Z,9.50
2022-08-20T04:47:37.491Z,9.60
2022-08-20T04:50:10.528Z,9.40
2022-08-20T04:52:39.374Z,9.50
2022-08-20T04:55:08.770Z,9.80
2022-08-20T04:57:41.300Z,9.80
2022-08-20T05:00:17.357Z,11.00
2022-08-20T05:02:46.193Z,10.20
2022-08-20T05:05:14.587Z,10.30
2022-08-20T05:07:46.275Z,10.20
2022-08-20T05:10:17.288Z,10.40
2022-08-20T05:12:56.589Z,10.30
2022-08-20T05:15:26.289Z,9.30
2022-08-20T05:17:57.704Z,8.90
2022-08-20T05:20:30.018Z,9.30
2022-08-20T05:22:59.939Z,9.30
2022-08-20T05:25:29.798Z,9.40
2022-08-20T05:28:09.704Z,9.30
2022-08-20T05:30:40.631Z,9.70
2022-08-20T05:33:10.325Z,9.00
2022-08-20T05:35:40.261Z,9.50
2022-08-20T05:38:11.999Z,9.40
2022-08-20T05:40:41.710Z,9.70
2022-08-20T05:43:10.454Z,9.40
2022-08-20T05:45:40.950Z,10.30
2022-08-20T05:48:12.733Z,9.00
2022-08-20T05:50:43.279Z,9.20
2022-08-20T05:53:13.034Z,8.60
2022-08-20T05:55:41.870Z,7.90
2022-08-20T05:58:21.210Z,8.90
2022-08-20T06:00:52.216Z,9.30
2022-08-20T06:03:39.850Z,8.50
2022-08-20T06:06:17.898Z,8.50
2022-08-20T06:08:57.119Z,9.20
2022-08-20T06:11:25.396Z,9.70
2022-08-20T06:13:53.794Z,8.40
2022-08-20T06:16:22.152Z,8.80
2022-08-20T06:18:58.179Z,7.50
2022-08-20T06:21:27.050Z,8.50
2022-08-20T06:24:00.012Z,8.10
2022-08-20T06:26:31.165Z,7.90
2022-08-20T06:29:00.389Z,8.80
2022-08-20T06:31:28.835Z,8.90
2022-08-20T06:33:57.852Z,8.00
2022-08-20T06:36:26.295Z,8.50
2022-08-20T06:38:58.616Z,9.20
2022-08-20T06:41:36.069Z,9.00
2022-08-20T06:44:07.659Z,9.30
2022-08-20T06:46:38.057Z,9.40
2022-08-20T06:49:07.689Z,9.40
2022-08-20T06:51:37.730Z,9.40
2022-08-20T06:54:08.976Z,9.10
2022-08-20T06:56:37.398Z,9.00
2022-08-20T06:59:05.756Z,10.10
2022-08-20T07:01:34.576Z,9.20
2022-08-20T07:04:03.379Z,8.70
2022-08-20T07:06:31.688Z,9.50
2022-08-20T07:09:00.419Z,9.00
2022-08-20T07:11:29.097Z,9.30
2022-08-20T07:13:58.567Z,8.50
2022-08-20T07:16:27.516Z,8.00
2022-08-20T07:18:56.253Z,7.90
2022-08-20T07:21:25.864Z,7.70
2022-08-20T07:23:54.207Z,7.20
2022-08-20T07:26:23.447Z,6.90
2022-08-20T07:28:51.878Z,7.40
2022-08-20T07:31:39.569Z,6.30
2022-08-20T07:34:11.629Z,6.80
2022-08-20T07:36:40.556Z,6.70
2022-08-20T07:39:09.332Z,6.10
2022-08-20T07:41:37.888Z,6.00
2022-08-20T07:44:06.393Z,5.50
2022-08-20T07:46:35.427Z,5.60
2022-08-20T07:49:05.572Z,6.40
2022-08-20T07:51:33.845Z,7.20
2022-08-20T07:54:02.444Z,7.60
2022-08-20T07:56:30.795Z,6.40
2022-08-20T07:59:00.093Z,5.70
2022-08-20T08:01:31.722Z,6.00
2022-08-20T08:04:01.752Z,6.10
2022-08-20T08:06:31.978Z,5.80
2022-08-20T08:09:03.859Z,5.60
2022-08-20T08:11:34.974Z,5.70
2022-08-20T08:14:06.568Z,5.70
2022-08-20T08:16:36.146Z,6.20
2022-08-20T08:19:09.320Z,5.70
2022-08-20T08:21:38.098Z,6.00
2022-08-20T08:24:06.499Z,6.00
2022-08-20T08:26:34.861Z,5.40
2022-08-20T08:29:03.370Z,5.80
2022-08-20T08:31:31.765Z,6.00
2022-08-20T08:34:00.655Z,5.30
2022-08-20T08:36:29.784Z,6.30
2022-08-20T08:38:58.130Z,6.20
2022-08-20T08:41:26.409Z,6.30
2022-08-20T08:43:57.945Z,6.50
2022-08-20T08:46:28.390Z,6.60
2022-08-20T08:49:01.818Z,5.80
2022-08-20T08:51:45.293Z,5.80
2022-08-20T08:54:20.450Z,5.30
2022-08-20T08:56:51.402Z,6.00
2022-08-20T08:59:21.192Z,5.50
2022-08-20T09:04:36.415Z,6.10
2022-08-20T09:07:11.161Z,6.00
2022-08-20T09:09:43.949Z,6.00
2022-08-20T09:12:15.142Z,5.70
2022-08-20T09:14:43.475Z,6.90
2022-08-20T09:17:11.789Z,6.00
2022-08-20T09:19:40.421Z,5.90
2022-08-20T09:22:18.323Z,6.00
2022-08-20T09:24:46.820Z,6.60
2022-08-20T09:27:15.324Z,6.00
2022-08-20T09:29:43.920Z,6.10
2022-08-20T09:32:18.924Z,5.70
2022-08-20T09:34:56.038Z,6.30
2022-08-20T09:37:26.615Z,6.10
2022-08-20T09:39:55.833Z,6.10
2022-08-20T09:42:28.325Z,6.00
2022-08-20T09:44:57.704Z,6.10
2022-08-20T09:47:26.876Z,6.00
2022-08-20T09:49:55.233Z,5.60
2022-08-20T09:52:25.898Z,5.10
2022-08-20T09:54:58.503Z,5.90
2022-08-20T09:57:27.517Z,5.90
2022-08-20T10:00:00.828Z,5.30
2022-08-20T10:02:29.195Z,5.70
2022-08-20T10:04:57.597Z,5.20
2022-08-20T10:07:25.962Z,5.10
2022-08-20T10:09:54.374Z,5.20
2022-08-20T10:12:22.804Z,6.90
2022-08-20T10:14:51.157Z,8.30
2022-08-20T10:17:19.582Z,5.90
2022-08-20T10:19:48.899Z,5.00
2022-08-20T10:22:17.262Z,4.80
2022-08-20T10:24:45.629Z,4.90
2022-08-20T10:27:14.001Z,4.50
2022-08-20T10:29:46.748Z,4.90
2022-08-20T10:32:16.398Z,4.90
2022-08-20T10:34:46.670Z,4.10
2022-08-20T10:37:21.112Z,4.90
2022-08-20T10:39:49.894Z,4.90
2022-08-20T10:42:18.267Z,4.50
2022-08-20T10:44:47.226Z,3.90
2022-08-20T10:47:20.288Z,4.70
2022-08-20T10:49:50.724Z,4.60
2022-08-20T10:52:20.302Z,4.60
2022-08-20T10:57:20.597Z,4.90
2022-08-20T10:59:51.927Z,4.60
2022-08-20T11:02:21.106Z,4.70
2022-08-20T11:04:50.688Z,4.50
2022-08-20T11:07:54.898Z,4.30
2022-08-20T11:10:18.881Z,4.40
2022-08-20T11:12:48.512Z,4.60
2022-08-20T11:15:17.088Z,4.40
2022-08-20T11:17:46.074Z,5.80
2022-08-20T11:20:18.073Z,5.60
2022-08-20T11:22:47.097Z,5.20
2022-08-20T11:25:16.115Z,5.00
2022-08-20T11:27:48.441Z,4.50
2022-08-20T11:30:21.405Z,3.90
2022-08-20T11:32:50.034Z,4.50
2022-08-20T11:35:41.695Z,4.60
2022-08-20T11:40:36.240Z,4.90
2022-08-20T11:43:20.054Z,4.10
2022-08-20T11:45:53.139Z,4.20
2022-08-20T11:48:21.730Z,5.00
2022-08-20T11:50:50.363Z,4.90
2022-08-20T11:53:18.773Z,5.00
2022-08-20T11:55:48.118Z,6.50
2022-08-20T11:58:16.560Z,4.40
2022-08-20T12:00:45.036Z,5.20
2022-08-20T12:03:13.499Z,6.60
2022-08-20T12:05:45.544Z,4.70
2022-08-20T12:08:27.133Z,4.50
2022-08-20T12:10:59.288Z,3.90
2022-08-20T12:13:48.224Z,4.60
2022-08-20T12:16:21.076Z,4.60
2022-08-20T12:18:49.490Z,4.30
2022-08-20T12:21:17.886Z,4.60
2022-08-20T12:23:46.339Z,4.80
2022-08-20T12:26:16.902Z,4.50
2022-08-20T12:28:45.323Z,4.30
2022-08-20T12:31:13.727Z,4.50
2022-08-20T12:33:42.101Z,4.30
2022-08-20T12:36:11.148Z,4.20
2022-08-20T12:38:39.480Z,4.30
2022-08-20T12:41:08.553Z,4.50
2022-08-20T12:43:36.971Z,4.50
2022-08-20T12:46:05.421Z,5.00
2022-08-20T12:48:33.807Z,4.60
2022-08-20T12:51:02.143Z,4.50
2022-08-20T12:53:30.490Z,4.80
2022-08-20T12:55:59.060Z,4.50
2022-08-20T12:58:27.366Z,4.70
2022-08-20T13:00:55.727Z,4.90
2022-08-20T13:03:24.100Z,4.70
2022-08-20T13:05:52.386Z,4.30
2022-08-20T13:08:20.691Z,5.20
2022-08-20T13:10:49.040Z,5.00
2022-08-20T13:13:20.154Z,5.00
2022-08-20T13:15:51.310Z,5.40
2022-08-20T13:18:20.387Z,5.50
2022-08-20T13:20:49.262Z,5.00
2022-08-20T13:23:17.802Z,4.60
2022-08-20T13:25:46.203Z,5.30
2022-08-20T13:28:14.562Z,4.60
2022-08-20T13:30:42.899Z,5.60
2022-08-20T13:33:11.271Z,6.00
2022-08-20T13:35:39.616Z,6.80
2022-08-20T13:38:07.922Z,6.70
2022-08-20T13:40:36.301Z,6.20
2022-08-20T13:43:07.049Z,5.70
2022-08-20T13:45:37.740Z,5.40
2022-08-20T13:48:09.943Z,5.70
2022-08-20T13:50:47.013Z,5.50
2022-08-20T13:53:16.621Z,6.20
2022-08-20T13:55:45.814Z,6.60
2022-08-20T13:58:14.255Z,6.30
2022-08-20T14:00:42.878Z,6.20
2022-08-20T14:03:12.675Z,6.20
2022-08-20T14:05:42.319Z,6.00
2022-08-20T14:08:20.327Z,6.20
2022-08-20T14:10:51.626Z,6.90
2022-08-20T14:13:22.471Z,6.20
2022-08-20T14:15:51.010Z,6.10
2022-08-20T14:18:20.193Z,6.00
2022-08-20T14:20:48.950Z,5.80
2022-08-20T14:23:17.383Z,6.50
2022-08-20T14:25:48.165Z,6.30
2022-08-20T14:28:19.858Z,5.90
2022-08-20T14:30:52.997Z,5.90
2022-08-20T14:33:24.232Z,5.60
2022-08-20T14:35:53.082Z,6.30
2022-08-20T14:38:21.959Z,5.80
2022-08-20T14:40:50.791Z,6.10
2022-08-20T14:43:19.816Z,6.80
2022-08-20T14:45:48.236Z,12.50
2022-08-20T14:48:16.597Z,6.40
2022-08-20T14:50:44.966Z,6.30
2022-08-20T14:53:13.434Z,5.90
2022-08-20T14:55:42.173Z,6.00
2022-08-20T14:58:12.499Z,5.40
2022-08-20T15:00:43.422Z,5.30
2022-08-20T15:03:13.668Z,4.90
2022-08-20T15:05:42.392Z,4.80
2022-08-20T15:08:12.483Z,4.80
2022-08-20T15:10:41.717Z,4.20
2022-08-20T15:13:10.201Z,4.50
2022-08-20T15:15:40.590Z,4.20
2022-08-20T15:18:09.383Z,4.10
2022-08-20T15:20:38.363Z,4.20
2022-08-20T15:23:08.259Z,4.10
2022-08-20T15:25:38.139Z,4.10
2022-08-20T15:28:09.725Z,4.10
2022-08-20T15:30:40.757Z,4.30
2022-08-20T15:33:10.558Z,4.80
2022-08-20T15:35:39.042Z,4.20
2022-08-20T15:38:07.468Z,4.20
2022-08-20T15:40:35.912Z,4.30
2022-08-20T15:43:05.883Z,4.10
2022-08-20T15:45:36.062Z,4.10
2022-08-20T15:48:18.051Z,3.70
2022-08-20T15:50:52.229Z,3.70
2022-08-20T15:53:28.307Z,3.90
2022-08-20T15:56:04.737Z,3.80
2022-08-20T15:58:47.930Z,4.20
2022-08-20T16:01:37.429Z,3.80
2022-08-20T16:04:34.232Z,4.40
2022-08-20T16:07:13.357Z,3.90
2022-08-20T16:10:21.510Z,3.80
2022-08-20T16:12:55.122Z,3.90
2022-08-20T16:15:31.413Z,3.90
2022-08-20T16:18:11.956Z,3.70
2022-08-20T16:20:48.054Z,4.10
2022-08-20T16:23:20.031Z,3.80
2022-08-20T16:25:54.307Z,4.00
2022-08-20T16:28:32.927Z,4.10
2022-08-20T16:31:08.068Z,3.60
2022-08-20T16:33:51.136Z,4.00
2022-08-20T16:36:43.502Z,3.50
2022-08-20T16:39:21.038Z,3.90
2022-08-20T16:41:53.571Z,3.80
2022-08-20T16:44:32.242Z,3.90
2022-08-20T16:47:18.781Z,3.90
2022-08-20T16:50:11.255Z,3.50
2022-08-20T16:52:42.403Z,4.00
2022-08-20T16:55:11.824Z,3.60
2022-08-20T16:57:40.997Z,3.60
2022-08-20T17:00:25.033Z,3.40
2022-08-20T17:02:57.237Z,3.70
2022-08-20T17:05:29.572Z,3.60
2022-08-20T17:08:03.950Z,3.70
2022-08-20T17:10:36.163Z,4.50
2022-08-20T17:13:20.846Z,3.80
2022-08-20T17:16:08.236Z,3.60
2022-08-20T17:18:39.831Z,3.90
2022-08-20T17:21:23.473Z,3.50
2022-08-20T17:24:07.200Z,3.50
2022-08-20T17:26:40.960Z,3.80
2022-08-20T17:29:21.616Z,3.80
2022-08-20T17:31:57.755Z,4.20
2022-08-20T17:34:44.577Z,4.10
2022-08-20T17:37:25.944Z,3.70
2022-08-20T17:40:06.534Z,3.90
2022-08-20T17:42:52.850Z,4.20
2022-08-20T17:45:34.394Z,5.00
2022-08-20T17:48:06.089Z,5.20
2022-08-20T17:50:38.747Z,5.70
2022-08-20T17:53:29.843Z,5.90
2022-08-20T17:56:02.701Z,6.00
2022-08-20T17:58:54.896Z,5.80
2022-08-20T18:01:26.082Z,4.90
2022-08-20T18:03:54.987Z,4.20
2022-08-20T18:06:32.188Z,4.40
2022-08-20T18:09:11.271Z,4.30
2022-08-20T18:11:43.545Z,4.20
2022-08-20T18:14:40.006Z,4.50
2022-08-20T18:17:36.519Z,4.20
2022-08-20T18:20:11.513Z,4.20
2022-08-20T18:23:01.157Z,4.20
2022-08-20T18:25:41.265Z,4.60
2022-08-20T18:28:20.467Z,3.90
2022-08-20T18:31:02.359Z,4.00
2022-08-20T18:33:33.500Z,3.80
2022-08-20T18:36:17.905Z,4.20
2022-08-20T18:39:04.580Z,3.90
2022-08-20T18:41:38.697Z,4.20
2022-08-20T18:44:15.318Z,4.00
2022-08-20T18:46:57.687Z,3.80
2022-08-20T18:49:33.484Z,3.80
2022-08-20T18:52:16.072Z,4.00
2022-08-20T18:54:51.443Z,3.80
2022-08-20T18:57:32.097Z,4.30
2022-08-20T19:00:14.663Z,4.10
2022-08-20T19:02:57.790Z,3.80
2022-08-20T19:05:46.480Z,3.70
2022-08-20T19:08:21.572Z,3.70
2022-08-20T19:11:20.815Z,3.60
2022-08-20T19:14:03.979Z,3.70
2022-08-20T19:16:40.771Z,3.90
2022-08-20T19:19:23.878Z,3.90
2022-08-20T19:21:52.757Z,3.60
2022-08-20T19:24:27.605Z,3.90
2022-08-20T19:27:00.522Z,3.90
2022-08-20T19:29:37.463Z,3.60
2022-08-20T19:32:09.223Z,3.80
2022-08-20T19:34:38.321Z,4.30
2022-08-20T19:37:35.294Z,4.00
2022-08-20T19:40:04.823Z,4.10
2022-08-20T19:42:42.364Z,4.10
2022-08-20T19:45:24.190Z,3.90
2022-08-20T19:47:57.583Z,4.00
2022-08-20T19:50:34.079Z,3.90
2022-08-20T19:53:24.924Z,4.60
2022-08-20T19:56:03.911Z,3.70
2022-08-20T19:58:33.803Z,3.90
2022-08-20T20:01:05.346Z,3.70
2022-08-20T20:03:37.951Z,3.80
2022-08-20T20:06:16.877Z,3.80
2022-08-20T20:09:28.864Z,4.30
2022-08-20T20:12:03.823Z,4.20
2022-08-20T20:14:35.735Z,3.70
2022-08-20T20:17:06.964Z,4.00
2022-08-20T20:19:45.956Z,4.30
2022-08-20T20:22:35.872Z,4.00
2022-08-20T20:25:23.050Z,3.70
2022-08-20T20:27:55.094Z,4.10
2022-08-20T20:30:31.261Z,4.30
2022-08-20T20:33:09.876Z,4.50
2022-08-20T20:35:38.294Z,4.10
2022-08-20T20:38:16.298Z,4.50
2022-08-20T20:40:46.746Z,4.10
2022-08-20T20:46:03.082Z,4.20
2022-08-20T20:48:42.703Z,4.20
2022-08-20T20:51:23.098Z,3.90
2022-08-20T20:53:55.057Z,4.20
2022-08-20T20:56:36.200Z,4.10
2022-08-20T20:59:07.510Z,4.10
2022-08-20T21:01:49.555Z,4.90
2022-08-20T21:04:24.021Z,10.40
2022-08-20T21:06:55.679Z,6.10
2022-08-20T21:09:26.304Z,4.60
2022-08-20T21:11:54.763Z,4.40
2022-08-20T21:14:23.165Z,4.60
2022-08-20T21:16:52.261Z,4.50
2022-08-20T21:19:21.833Z,4.40
2022-08-20T21:21:50.261Z,5.00
2022-08-20T21:24:18.999Z,4.30
2022-08-20T21:26:49.075Z,4.60
2022-08-20T21:29:32.305Z,4.70
2022-08-20T21:32:01.260Z,3.90
2022-08-20T21:34:29.634Z,4.30
2022-08-20T21:36:58.004Z,3.60
2022-08-20T21:39:27.729Z,4.00
2022-08-20T21:41:58.921Z,3.90
2022-08-20T21:44:30.164Z,3.90
2022-08-20T21:47:01.520Z,4.30
2022-08-20T21:49:32.130Z,3.80
2022-08-20T21:52:00.509Z,3.80
2022-08-20T21:54:28.858Z,3.80
2022-08-20T21:57:14.747Z,3.90
2022-08-20T21:59:43.074Z,4.40
2022-08-20T22:02:11.558Z,3.80
2022-08-20T22:04:39.919Z,4.00
2022-08-20T22:07:08.648Z,3.70
2022-08-20T22:09:39.188Z,3.60
2022-08-20T22:14:37.752Z,3.90
2022-08-20T22:17:06.134Z,3.70
2022-08-20T22:19:34.553Z,4.10
2022-08-20T22:22:03.545Z,3.40
2022-08-20T22:24:32.117Z,3.90
2022-08-20T22:27:00.562Z,3.70
2022-08-20T22:29:28.971Z,4.10
2022-08-20T22:31:58.411Z,4.10
2022-08-20T22:34:30.713Z,4.10
2022-08-20T22:37:00.931Z,3.90
2022-08-20T22:39:29.264Z,4.00
2022-08-20T22:41:57.850Z,4.10
2022-08-20T22:44:26.327Z,4.10
2022-08-20T22:47:00.218Z,3.90
2022-08-20T22:49:32.282Z,3.80
2022-08-20T22:52:01.284Z,4.00
2022-08-20T22:54:30.428Z,4.00
2022-08-20T22:56:58.850Z,3.80
2022-08-20T22:59:28.368Z,4.10
2022-08-20T23:02:08.292Z,3.80
2022-08-20T23:04:36.875Z,3.90
2022-08-20T23:07:10.374Z,4.20
2022-08-20T23:09:43.014Z,3.90
2022-08-20T23:12:11.639Z,3.60
2022-08-20T23:14:39.985Z,4.00
2022-08-20T23:17:14.069Z,3.80
2022-08-20T23:19:42.969Z,3.90
2022-08-20T23:22:11.690Z,4.50
2022-08-20T23:24:40.636Z,4.10
2022-08-20T23:27:13.423Z,4.20
2022-08-20T23:29:42.795Z,4.00
2022-08-20T23:32:12.714Z,3.80
2022-08-20T23:34:41.057Z,4.10
2022-08-20T23:37:10.695Z,3.90
2022-08-20T23:39:39.111Z,3.80
2022-08-20T23:42:07.550Z,3.80
2022-08-20T23:44:35.850Z,3.70
2022-08-20T23:47:04.830Z,3.90
2022-08-20T23:49:33.234Z,3.80
2022-08-20T23:52:01.637Z,3.70
2022-08-20T23:54:31.615Z,3.70
2022-08-20T23:57:00.143Z,3.30
2022-08-20T23:59:28.719Z,3.50
